Thakaew, Jutamas
ThailandWomanBorn 19902022 – 2026Runner id 2028013
Events
25
2022 – 2026
Best pace
7.672
km/h · 2022
Best finish
11th
of 189 · 2024
Distance raced
2,347
km · splits not double-counted
Pace over time
km/h · higher is faster
Pace over time: 25 races from 2022 to 2026, ranging from 3.57 to 7.67 kilometres per hour, where higher is faster. A second, age-graded series is drawn above it; the gap between the two is the age credit.
- Actual pace
- Age-graded pace
Results
| Date | Event | Distance | Result | Pace km/h | Placing |
|---|---|---|---|---|---|
| 2022-11-20 | Ultra Park Run Thailand 60 kmThailand | 60km | 7:49:15 h | 7.672 | 54/112 |
| 2023-05-21 | 10h | 67.200 km | 6.720 | 80/189 | |
| 2023-07-09 | Brooks Run For The WildThailand | 50km | 10:09:18 h | 4.924 | 41/80 |
| 2023-07-22 | CM6 Run - CM3 60 KmThailand | 60km | 12:54:43 h | 4.647 | 103/428 |
| 2023-10-01 | Legendary Trail Series KMK50Thailand | 50km | 8:53:42 h | 5.621 | 66/177 |
| 2023-11-11 | 24h | 104.000 km | 4.333 | 51/374 | |
| 2023-11-25 | Cuesta X TrailThailand | 100km | 21:06:06 h | 4.739 | 17/74 |
| 2023-12-16 | Khaoyai 100K Ultra Road MarathonThailand | 100km | 13:58:31 h | 7.155 | 145/647 |
| 2024-01-20 | 50km | 8:10:22 h | 6.118 | 82/214 | |
| 2024-03-02 | Phuket 100K Ultra MarathonThailand | 100km | 13:49:12 h | 7.236 | 78/342 |
| 2024-06-16 | Thailand 100K Ultra MarathonThailand | 100km | 15:46:24 h | 6.340 | 302/371 |
| 2024-08-03 | CM6 Run - CM5 100 KmThailand | 100km | 27:58:52 h | 3.574 | 110/162 |
| 2024-10-05 | CNX 100K Ultra MarathonThailand | 100km | 14:32:10 h | 6.879 | 87/335 |
| 2024-11-09 | 24h | 154.000 km | 6.417 | 11/189 | |
| 2024-11-23 | Cuesta X TrailThailand | 100km | 19:42:42 h | 5.073 | 18/157 |
| 2024-12-14 | Khaoyai 100K Ultra Road MarathonThailand | 100km | 13:45:43 h | 7.266 | 165/714 |
| 2025-01-18 | 50km | 7:31:51 h | 6.639 | 38/120 | |
| 2025-02-07 | 100mi | 25:33:47 h | 6.296 | 44/485 | |
| 2025-07-20 | Rimpha X Trail - RP72Thailand | 72km | 12:17:49 h | 5.855 | 30/190 |
| 2025-08-09 | CM6 Run - CM5 100 KmThailand | 100km | 25:32:03 h | 3.916 | 59/152 |
| 2025-09-27 | Chiangmai 24 Hr ChallengeThailand | 24h | 135.255 km | 5.636 | 31/76 |
| 2025-11-22 | Cuesta X Trail - CXT-100Thailand | 100km | 21:02:51 h | 4.751 | 16/131 |
| 2026-01-17 | Thailand 24HThailand | 24h | 167.440 km | 6.977 | 11/90 |
| 2026-02-07 | Ultra Trail Savannah 66 kmThailand | 66km | 10:22:13 h | 6.364 | 11/25 |
| 2026-07-11 | Rimpha X Trail - RP100Thailand | 100km | 17:30:56 h | 5.709 | 10/119 |